createdAt,value
2023-05-07T00:01:08.208Z,9.54
2023-05-07T00:03:40.218Z,9.50
2023-05-07T00:06:13.636Z,9.45
2023-05-07T00:08:45.556Z,9.45
2023-05-07T00:11:17.431Z,9.45
2023-05-07T00:13:49.234Z,9.49
2023-05-07T00:16:21.003Z,9.50
2023-05-07T00:18:52.786Z,9.49
2023-05-07T00:21:27.530Z,9.51
2023-05-07T00:23:59.322Z,9.52
2023-05-07T00:26:31.092Z,9.52
2023-05-07T00:29:02.827Z,9.52
2023-05-07T00:31:34.768Z,9.52
2023-05-07T00:34:06.807Z,9.54
2023-05-07T00:36:38.584Z,9.56
2023-05-07T00:39:10.345Z,9.55
2023-05-07T00:41:42.497Z,9.56
2023-05-07T00:44:14.189Z,9.56
2023-05-07T00:46:46.374Z,9.53
2023-05-07T00:49:18.495Z,9.47
2023-05-07T00:51:51.912Z,9.48
2023-05-07T00:54:24.288Z,9.48
2023-05-07T00:56:56.455Z,9.42
2023-05-07T00:59:28.681Z,9.35
2023-05-07T01:02:00.533Z,9.35
2023-05-07T01:04:33.061Z,9.41
2023-05-07T01:07:05.523Z,9.31
2023-05-07T01:09:39.040Z,9.27
2023-05-07T01:12:12.414Z,9.16
2023-05-07T01:14:44.404Z,9.16
2023-05-07T01:17:16.964Z,9.19
2023-05-07T01:19:50.058Z,9.17
2023-05-07T01:22:32.876Z,9.22
2023-05-07T01:25:05.360Z,9.19
2023-05-07T01:27:38.504Z,9.17
2023-05-07T01:30:10.370Z,9.19
2023-05-07T01:32:48.427Z,9.21
2023-05-07T01:35:24.159Z,9.24
2023-05-07T01:37:56.719Z,9.18
2023-05-07T01:40:29.479Z,9.15
2023-05-07T01:42:59.734Z,9.08
2023-05-07T01:45:32.471Z,9.03
2023-05-07T01:48:03.575Z,8.94
2023-05-07T01:50:35.969Z,8.94
2023-05-07T01:53:08.318Z,8.94
2023-05-07T01:55:40.983Z,8.84
2023-05-07T01:58:13.263Z,8.75
2023-05-07T02:00:45.312Z,8.70
2023-05-07T02:03:17.022Z,8.78
2023-05-07T02:05:57.487Z,8.84
2023-05-07T02:08:44.230Z,8.83
2023-05-07T02:11:17.050Z,8.81
2023-05-07T02:13:49.165Z,8.82
2023-05-07T02:16:21.047Z,8.90
2023-05-07T02:18:52.996Z,8.90
2023-05-07T02:21:24.938Z,8.88
2023-05-07T02:23:57.223Z,8.88
2023-05-07T02:26:29.702Z,8.92
2023-05-07T02:29:01.778Z,8.95
2023-05-07T02:31:35.097Z,8.91
2023-05-07T02:34:07.563Z,8.89
2023-05-07T02:36:39.241Z,8.70
2023-05-07T02:39:16.460Z,8.74
2023-05-07T02:41:48.145Z,8.61
2023-05-07T02:44:20.024Z,8.65
2023-05-07T02:46:53.512Z,8.61
2023-05-07T02:49:25.372Z,8.54
2023-05-07T02:51:57.370Z,8.57
2023-05-07T02:54:29.435Z,8.55
2023-05-07T02:57:01.855Z,8.53
2023-05-07T02:59:33.584Z,8.45
2023-05-07T03:02:05.372Z,8.45
2023-05-07T03:04:37.478Z,8.49
2023-05-07T03:07:09.536Z,8.51
2023-05-07T03:09:41.200Z,8.56
2023-05-07T03:12:13.072Z,8.60
2023-05-07T03:14:44.806Z,8.55
2023-05-07T03:17:17.214Z,8.51
2023-05-07T03:19:48.953Z,8.62
2023-05-07T03:22:21.454Z,8.58
2023-05-07T03:24:53.180Z,8.59
2023-05-07T03:27:24.873Z,8.62
2023-05-07T03:29:57.521Z,8.69
2023-05-07T03:32:29.180Z,8.64
2023-05-07T03:35:01.203Z,8.72
2023-05-07T03:37:33.329Z,8.76
2023-05-07T03:40:05.393Z,8.77
2023-05-07T03:42:39.151Z,8.85
2023-05-07T03:45:12.373Z,8.83
2023-05-07T03:47:46.348Z,8.85
2023-05-07T03:50:21.788Z,8.84
2023-05-07T03:52:53.548Z,8.90
2023-05-07T03:55:26.176Z,8.92
2023-05-07T03:58:01.061Z,8.97
2023-05-07T04:00:38.096Z,8.97
2023-05-07T04:03:12.428Z,9.00
2023-05-07T04:05:44.236Z,9.01
2023-05-07T04:08:16.371Z,9.07
2023-05-07T04:10:56.099Z,9.10
2023-05-07T04:13:28.202Z,9.13
2023-05-07T04:16:00.761Z,9.11
2023-05-07T04:18:33.272Z,9.12
2023-05-07T04:21:05.720Z,9.11
2023-05-07T04:23:39.322Z,9.11
2023-05-07T04:26:13.828Z,9.05
2023-05-07T04:28:47.870Z,9.07
2023-05-07T04:31:20.938Z,9.10
2023-05-07T04:33:55.470Z,9.05
2023-05-07T04:36:28.736Z,9.05
2023-05-07T04:39:06.225Z,8.94
2023-05-07T04:41:39.156Z,8.96
2023-05-07T04:44:11.836Z,8.93
2023-05-07T04:46:43.674Z,8.91
2023-05-07T04:49:16.578Z,8.87
2023-05-07T04:51:48.560Z,8.91
2023-05-07T04:54:21.794Z,8.97
2023-05-07T04:56:53.823Z,8.95
2023-05-07T04:59:25.956Z,9.01
2023-05-07T05:01:58.595Z,9.10
2023-05-07T05:04:29.208Z,9.21
2023-05-07T05:07:01.593Z,9.20
2023-05-07T05:09:33.918Z,9.22
2023-05-07T05:12:05.152Z,9.24
2023-05-07T05:14:37.203Z,9.20
2023-05-07T05:17:09.386Z,9.22
2023-05-07T05:19:41.967Z,9.20
2023-05-07T05:22:13.702Z,9.29
2023-05-07T05:24:45.927Z,9.33
2023-05-07T05:27:17.725Z,9.39
2023-05-07T05:29:50.033Z,9.47
2023-05-07T05:32:21.969Z,9.51
2023-05-07T05:34:54.520Z,9.57
2023-05-07T05:37:26.922Z,9.57
2023-05-07T05:39:57.442Z,9.58
2023-05-07T05:42:31.299Z,9.55
2023-05-07T05:45:03.254Z,9.53
2023-05-07T05:47:35.567Z,9.54
2023-05-07T05:50:10.332Z,9.59
2023-05-07T05:52:43.033Z,9.59
2023-05-07T05:55:15.236Z,9.59
2023-05-07T05:57:47.477Z,9.62
2023-05-07T06:00:23.317Z,9.69
2023-05-07T06:03:01.037Z,9.71
2023-05-07T06:05:32.812Z,9.75
2023-05-07T06:08:04.786Z,9.77
2023-05-07T06:10:39.468Z,9.79
2023-05-07T06:13:11.872Z,9.78
2023-05-07T06:15:43.707Z,9.84
2023-05-07T06:18:16.031Z,9.89
2023-05-07T06:20:48.362Z,9.92
2023-05-07T06:23:26.734Z,9.93
2023-05-07T06:25:58.540Z,9.95
2023-05-07T06:28:36.731Z,9.97
2023-05-07T06:31:22.482Z,9.98
2023-05-07T06:34:00.950Z,10.04
2023-05-07T06:36:41.401Z,10.09
2023-05-07T06:39:23.401Z,10.09
2023-05-07T06:41:57.405Z,10.16
2023-05-07T06:44:32.683Z,10.23
2023-05-07T06:47:11.898Z,10.31
2023-05-07T06:49:45.579Z,10.33
2023-05-07T06:52:19.094Z,10.34
2023-05-07T06:54:51.535Z,10.34
2023-05-07T06:57:24.848Z,10.36
2023-05-07T06:59:57.334Z,10.43
2023-05-07T07:02:29.847Z,10.51
2023-05-07T07:05:01.955Z,10.53
2023-05-07T07:07:34.016Z,10.56
2023-05-07T07:10:06.189Z,10.61
2023-05-07T07:12:38.199Z,10.65
2023-05-07T07:15:12.046Z,10.75
2023-05-07T07:17:44.866Z,10.84
2023-05-07T07:20:17.480Z,10.96
2023-05-07T07:22:49.963Z,11.00
2023-05-07T07:25:22.369Z,11.15
2023-05-07T07:27:54.930Z,11.30
2023-05-07T07:30:28.759Z,11.35
2023-05-07T07:33:03.410Z,11.40
2023-05-07T07:35:37.185Z,11.45
2023-05-07T07:38:10.602Z,11.52
2023-05-07T07:40:44.835Z,11.59
2023-05-07T07:43:16.658Z,11.66
2023-05-07T07:45:48.506Z,11.71
2023-05-07T07:48:20.596Z,11.78
2023-05-07T07:50:53.610Z,11.81
2023-05-07T07:53:26.704Z,11.88
2023-05-07T07:55:59.480Z,11.86
2023-05-07T07:58:32.993Z,11.96
2023-05-07T08:01:06.059Z,12.04
2023-05-07T08:03:39.147Z,12.08
2023-05-07T08:06:11.876Z,12.08
2023-05-07T08:08:44.003Z,12.09
2023-05-07T08:11:16.536Z,12.11
2023-05-07T08:13:49.752Z,12.19
2023-05-07T08:16:22.341Z,12.17
2023-05-07T08:18:57.503Z,12.21
2023-05-07T08:21:29.484Z,12.18
2023-05-07T08:24:01.330Z,12.22
2023-05-07T08:26:34.412Z,12.20
2023-05-07T08:29:06.595Z,12.24
2023-05-07T08:31:39.680Z,12.18
2023-05-07T08:34:11.539Z,12.18
2023-05-07T08:36:47.922Z,12.24
2023-05-07T08:39:20.167Z,12.40
2023-05-07T08:41:57.750Z,12.45
2023-05-07T08:44:35.281Z,12.47
2023-05-07T08:47:09.672Z,12.57
2023-05-07T08:49:42.445Z,12.61
2023-05-07T08:52:15.186Z,12.65
2023-05-07T08:54:47.357Z,12.59
2023-05-07T08:57:20.934Z,12.55
2023-05-07T08:59:52.869Z,12.63
2023-05-07T09:02:25.059Z,12.72
2023-05-07T09:04:56.612Z,12.73
2023-05-07T09:07:28.865Z,12.75
2023-05-07T09:10:02.922Z,12.80
2023-05-07T09:12:36.189Z,12.87
2023-05-07T09:15:11.758Z,12.90
2023-05-07T09:17:45.697Z,12.87
2023-05-07T09:20:20.480Z,12.99
2023-05-07T09:22:52.964Z,13.06
2023-05-07T09:25:33.062Z,13.21
2023-05-07T09:28:11.074Z,13.29
2023-05-07T09:30:42.961Z,13.38
2023-05-07T09:33:15.923Z,13.40
2023-05-07T09:35:53.075Z,13.33
2023-05-07T09:38:25.645Z,13.36
2023-05-07T09:41:09.023Z,13.48
2023-05-07T09:43:46.630Z,13.56
2023-05-07T09:46:21.419Z,13.58
2023-05-07T09:48:58.983Z,13.61
2023-05-07T09:51:39.610Z,13.67
2023-05-07T09:54:12.722Z,13.61
2023-05-07T09:56:46.994Z,13.42
2023-05-07T09:59:20.677Z,13.45
2023-05-07T10:01:58.713Z,13.46
2023-05-07T10:04:32.667Z,13.45
2023-05-07T10:07:05.905Z,13.48
2023-05-07T10:09:39.823Z,13.44
2023-05-07T10:12:13.357Z,13.44
2023-05-07T10:14:45.789Z,13.42
2023-05-07T10:17:20.152Z,13.42
2023-05-07T10:19:55.219Z,13.41
2023-05-07T10:22:30.106Z,13.53
2023-05-07T10:25:04.821Z,13.51
2023-05-07T10:27:38.930Z,13.62
2023-05-07T10:30:21.946Z,13.68
2023-05-07T10:32:53.394Z,13.62
2023-05-07T10:35:34.401Z,13.50
2023-05-07T10:38:08.747Z,13.49
2023-05-07T10:40:42.640Z,13.60
2023-05-07T10:43:14.946Z,13.70
2023-05-07T10:46:13.504Z,13.82
2023-05-07T10:49:13.133Z,13.82
2023-05-07T10:52:21.232Z,13.80
2023-05-07T10:55:26.710Z,13.72
2023-05-07T10:58:32.988Z,13.77
2023-05-07T11:01:54.730Z,13.80
2023-05-07T11:05:26.212Z,14.11
2023-05-07T11:08:12.161Z,14.54
2023-05-07T11:10:54.422Z,14.61
2023-05-07T11:13:48.167Z,14.62
2023-05-07T11:16:29.429Z,14.49
2023-05-07T11:19:15.017Z,14.34
2023-05-07T11:21:50.446Z,14.19
2023-05-07T11:24:44.373Z,14.07
2023-05-07T11:27:24.858Z,14.02
2023-05-07T11:29:57.174Z,14.07
2023-05-07T11:32:31.199Z,14.10
2023-05-07T11:35:04.613Z,14.04
2023-05-07T11:37:36.392Z,13.97
2023-05-07T11:40:12.451Z,14.06
2023-05-07T11:42:44.571Z,14.25
2023-05-07T11:45:27.036Z,14.48
2023-05-07T11:47:58.714Z,14.42
2023-05-07T11:50:30.474Z,14.27
2023-05-07T11:53:02.599Z,14.21
2023-05-07T11:55:34.744Z,14.13
2023-05-07T11:58:07.843Z,14.14
2023-05-07T12:00:40.828Z,14.14
2023-05-07T12:03:13.106Z,14.22
2023-05-07T12:05:45.089Z,14.32
2023-05-07T12:08:19.310Z,14.41
2023-05-07T12:10:52.637Z,14.56
2023-05-07T12:13:25.891Z,14.57
2023-05-07T12:15:59.228Z,14.41
2023-05-07T12:18:32.171Z,14.42
2023-05-07T12:21:04.421Z,14.76
2023-05-07T12:23:37.765Z,15.10
2023-05-07T12:26:10.924Z,15.33
2023-05-07T12:28:42.812Z,15.36
2023-05-07T12:31:16.659Z,15.25
2023-05-07T12:33:48.949Z,15.02
2023-05-07T12:36:22.157Z,14.92
2023-05-07T12:38:54.090Z,14.87
2023-05-07T12:41:30.192Z,14.96
2023-05-07T12:44:02.081Z,15.25
2023-05-07T12:46:33.976Z,15.37
2023-05-07T12:49:06.480Z,15.40
2023-05-07T12:51:39.779Z,15.35
2023-05-07T12:54:11.626Z,15.18
2023-05-07T12:56:43.671Z,15.07
2023-05-07T12:59:15.839Z,15.23
2023-05-07T13:01:49.089Z,15.40
2023-05-07T13:04:22.236Z,15.43
2023-05-07T13:06:54.188Z,15.37
2023-05-07T13:09:26.041Z,15.25
2023-05-07T13:11:57.803Z,15.22
2023-05-07T13:14:29.655Z,15.23
2023-05-07T13:17:01.611Z,15.20
2023-05-07T13:19:33.322Z,15.25
2023-05-07T13:22:05.341Z,15.28
2023-05-07T13:24:37.808Z,15.31
2023-05-07T13:27:09.753Z,15.10
2023-05-07T13:29:41.547Z,14.96
2023-05-07T13:32:13.847Z,14.94
2023-05-07T13:34:45.706Z,14.96
2023-05-07T13:37:17.465Z,14.95
2023-05-07T13:39:49.507Z,14.97
2023-05-07T13:42:21.356Z,15.00
2023-05-07T13:44:53.125Z,15.08
2023-05-07T13:47:25.022Z,15.46
2023-05-07T13:49:56.935Z,15.80
2023-05-07T13:52:28.799Z,15.91
2023-05-07T13:55:00.687Z,16.13
2023-05-07T13:57:32.483Z,16.21
2023-05-07T14:00:05.941Z,16.06
2023-05-07T14:02:46.980Z,15.95
2023-05-07T14:05:18.870Z,16.22
2023-05-07T14:07:52.674Z,16.46
2023-05-07T14:10:25.124Z,16.37
2023-05-07T14:12:56.932Z,16.26
2023-05-07T14:15:28.785Z,16.09
2023-05-07T14:18:01.167Z,15.93
2023-05-07T14:20:34.228Z,15.91
2023-05-07T14:23:06.096Z,15.79
2023-05-07T14:25:38.384Z,15.86
2023-05-07T14:28:10.305Z,15.79
2023-05-07T14:30:42.180Z,15.73
2023-05-07T14:33:14.595Z,15.65
2023-05-07T14:35:49.711Z,15.68
2023-05-07T14:38:24.656Z,15.62
2023-05-07T14:40:57.098Z,15.66
2023-05-07T14:43:28.922Z,15.56
2023-05-07T14:46:00.825Z,15.55
2023-05-07T14:48:32.934Z,15.49
2023-05-07T14:51:05.366Z,15.65
2023-05-07T14:53:37.176Z,15.84
2023-05-07T14:56:09.425Z,15.81
2023-05-07T14:58:41.206Z,15.70
2023-05-07T15:01:13.150Z,15.73
2023-05-07T15:03:45.240Z,15.71
2023-05-07T15:06:17.110Z,15.61
2023-05-07T15:08:49.375Z,15.64
2023-05-07T15:11:21.075Z,16.00
2023-05-07T15:13:52.842Z,16.53
2023-05-07T15:16:24.629Z,16.92
2023-05-07T15:18:56.455Z,17.31
2023-05-07T15:21:28.663Z,17.61
2023-05-07T15:24:00.533Z,17.90
2023-05-07T15:26:32.281Z,17.72
2023-05-07T15:29:09.157Z,17.81
2023-05-07T15:31:41.228Z,18.03
2023-05-07T15:34:13.463Z,17.78
2023-05-07T15:36:45.339Z,17.36
2023-05-07T15:39:17.224Z,17.05
2023-05-07T15:41:48.927Z,16.68
2023-05-07T15:44:20.654Z,16.17
2023-05-07T15:46:52.514Z,16.17
2023-05-07T15:49:24.364Z,16.56
2023-05-07T15:51:56.685Z,17.24
2023-05-07T15:54:28.491Z,17.75
2023-05-07T15:57:01.592Z,17.64
2023-05-07T15:59:33.389Z,17.59
2023-05-07T16:02:05.424Z,17.91
2023-05-07T16:04:37.275Z,17.91
2023-05-07T16:07:11.800Z,18.04
2023-05-07T16:09:44.684Z,18.45
2023-05-07T16:12:18.245Z,18.38
2023-05-07T16:14:51.845Z,18.14
2023-05-07T16:17:24.189Z,17.82
2023-05-07T16:19:56.062Z,17.38
2023-05-07T16:22:29.352Z,16.99
2023-05-07T16:25:02.495Z,16.71
2023-05-07T16:27:34.963Z,16.27
2023-05-07T16:30:08.696Z,16.03
2023-05-07T16:32:40.682Z,15.97
2023-05-07T16:35:13.505Z,15.88
2023-05-07T16:37:45.548Z,15.78
2023-05-07T16:40:18.294Z,16.44
2023-05-07T16:42:50.583Z,16.64
2023-05-07T16:45:23.475Z,16.95
2023-05-07T16:47:56.744Z,17.14
2023-05-07T16:50:28.654Z,16.96
2023-05-07T16:53:00.430Z,16.71
2023-05-07T16:55:38.776Z,16.37
2023-05-07T16:58:12.801Z,15.88
2023-05-07T17:03:19.834Z,15.51
2023-05-07T17:05:53.118Z,15.50
2023-05-07T17:08:25.142Z,15.53
2023-05-07T17:10:56.914Z,15.53
2023-05-07T17:13:28.933Z,15.51
2023-05-07T17:16:00.740Z,15.31
2023-05-07T17:18:32.960Z,15.16
2023-05-07T17:21:06.125Z,15.09
2023-05-07T17:23:37.982Z,15.00
2023-05-07T17:26:15.498Z,14.96
2023-05-07T17:28:47.154Z,14.88
2023-05-07T17:31:18.955Z,14.84
2023-05-07T17:33:50.906Z,14.85
2023-05-07T17:36:22.730Z,15.49
2023-05-07T17:38:54.504Z,15.99
2023-05-07T17:41:26.296Z,16.32
2023-05-07T17:43:58.028Z,16.51
2023-05-07T17:46:30.005Z,16.78
2023-05-07T17:49:01.847Z,16.68
2023-05-07T17:51:45.841Z,16.83
2023-05-07T17:54:26.872Z,16.92
2023-05-07T17:56:59.108Z,16.91
2023-05-07T17:59:30.950Z,17.10
2023-05-07T18:02:02.802Z,17.14
2023-05-07T18:04:34.557Z,16.42
2023-05-07T18:07:06.563Z,15.83
2023-05-07T18:09:38.587Z,15.37
2023-05-07T18:12:10.825Z,15.02
2023-05-07T18:14:43.082Z,14.74
2023-05-07T18:17:14.978Z,14.46
2023-05-07T18:19:47.488Z,14.17
2023-05-07T18:22:19.475Z,14.01
2023-05-07T18:24:52.942Z,13.94
2023-05-07T18:27:25.272Z,13.83
2023-05-07T18:29:57.290Z,13.63
2023-05-07T18:32:29.722Z,13.57
2023-05-07T18:35:01.659Z,13.51
2023-05-07T18:37:33.308Z,13.35
2023-05-07T18:40:06.121Z,13.33
2023-05-07T18:42:37.206Z,13.25
2023-05-07T18:45:11.033Z,13.14
2023-05-07T18:47:43.258Z,13.05
2023-05-07T18:50:16.561Z,12.97
2023-05-07T18:52:49.103Z,12.90
2023-05-07T18:55:22.593Z,12.82
2023-05-07T18:57:54.724Z,12.79
2023-05-07T19:00:26.961Z,12.69
2023-05-07T19:02:59.029Z,12.64
2023-05-07T19:05:30.953Z,12.61
2023-05-07T19:08:03.128Z,12.50
2023-05-07T19:10:35.315Z,12.48
2023-05-07T19:13:07.899Z,12.41
2023-05-07T19:15:39.941Z,12.37
2023-05-07T19:18:12.179Z,12.24
2023-05-07T19:20:44.171Z,12.17
2023-05-07T19:23:16.471Z,12.17
2023-05-07T19:25:50.669Z,12.15
2023-05-07T19:28:23.249Z,12.17
2023-05-07T19:30:55.303Z,12.12
2023-05-07T19:33:29.755Z,12.08
2023-05-07T19:36:02.724Z,12.02
2023-05-07T19:38:34.644Z,11.96
2023-05-07T19:41:06.520Z,11.94
2023-05-07T19:43:39.530Z,11.93
2023-05-07T19:46:11.665Z,11.92
2023-05-07T19:48:44.073Z,11.93
2023-05-07T19:51:16.356Z,11.91
2023-05-07T19:53:48.210Z,11.87
2023-05-07T19:56:20.991Z,11.87
2023-05-07T19:58:51.831Z,11.86
2023-05-07T20:01:23.647Z,11.80
2023-05-07T20:03:56.330Z,11.79
2023-05-07T20:06:26.824Z,11.71
2023-05-07T20:08:58.905Z,11.70
2023-05-07T20:11:31.868Z,11.68
2023-05-07T20:14:05.820Z,11.67
2023-05-07T20:16:37.874Z,11.65
2023-05-07T20:19:10.152Z,11.62
2023-05-07T20:21:42.203Z,11.58
2023-05-07T20:24:14.392Z,11.54
2023-05-07T20:26:46.707Z,11.51
2023-05-07T20:29:18.716Z,11.48
2023-05-07T20:31:50.461Z,11.46
2023-05-07T20:34:22.242Z,11.43
2023-05-07T20:36:54.059Z,11.39
2023-05-07T20:39:26.886Z,11.36
2023-05-07T20:41:59.619Z,11.32
2023-05-07T20:44:30.698Z,11.26
2023-05-07T20:47:02.574Z,11.19
2023-05-07T20:49:34.423Z,11.17
2023-05-07T20:52:07.115Z,11.14
2023-05-07T20:54:40.777Z,11.13
2023-05-07T20:57:12.652Z,11.09
2023-05-07T20:59:44.887Z,11.06
2023-05-07T21:02:17.005Z,11.05
2023-05-07T21:04:51.450Z,11.00
2023-05-07T21:07:23.450Z,10.97
2023-05-07T21:09:55.342Z,10.92
2023-05-07T21:12:27.172Z,10.89
2023-05-07T21:15:00.028Z,10.83
2023-05-07T21:17:33.460Z,10.80
2023-05-07T21:20:05.634Z,10.79
2023-05-07T21:22:37.497Z,10.78
2023-05-07T21:25:12.599Z,10.75
2023-05-07T21:27:45.798Z,10.69
2023-05-07T21:30:18.813Z,10.64
2023-05-07T21:32:53.114Z,10.63
2023-05-07T21:35:25.556Z,10.54
2023-05-07T21:37:57.347Z,10.52
2023-05-07T21:40:29.228Z,10.47
2023-05-07T21:43:00.973Z,10.47
2023-05-07T21:45:32.862Z,10.37
2023-05-07T21:48:04.726Z,10.33
2023-05-07T21:50:36.857Z,10.27
2023-05-07T21:53:08.817Z,10.13
2023-05-07T21:55:40.609Z,10.20
2023-05-07T21:58:12.364Z,10.13
2023-05-07T22:00:44.424Z,10.01
2023-05-07T22:03:16.236Z,9.93
2023-05-07T22:05:49.736Z,9.89
2023-05-07T22:08:21.648Z,9.87
2023-05-07T22:10:53.461Z,9.81
2023-05-07T22:13:25.943Z,9.78
2023-05-07T22:15:58.754Z,9.75
2023-05-07T22:18:30.713Z,9.82
2023-05-07T22:21:02.446Z,9.78
2023-05-07T22:23:34.390Z,9.69
2023-05-07T22:26:12.931Z,9.67
2023-05-07T22:28:44.705Z,9.66
2023-05-07T22:31:16.551Z,9.64
2023-05-07T22:33:48.290Z,9.61
2023-05-07T22:36:20.402Z,9.58
2023-05-07T22:38:52.149Z,9.55
2023-05-07T22:41:24.591Z,9.60
2023-05-07T22:43:56.472Z,9.50
2023-05-07T22:46:28.383Z,9.41
2023-05-07T22:49:00.252Z,9.31
2023-05-07T22:51:32.371Z,9.29
2023-05-07T22:54:04.321Z,9.25
2023-05-07T22:56:36.026Z,9.20
2023-05-07T22:59:07.724Z,9.15
2023-05-07T23:01:39.865Z,9.14
2023-05-07T23:04:11.767Z,9.12
2023-05-07T23:06:43.536Z,9.08
2023-05-07T23:09:15.464Z,9.02
2023-05-07T23:11:47.202Z,8.99
2023-05-07T23:14:18.945Z,9.00
2023-05-07T23:16:50.691Z,9.10
2023-05-07T23:19:22.542Z,9.08
2023-05-07T23:21:54.496Z,9.10
2023-05-07T23:24:26.268Z,9.13
2023-05-07T23:26:58.039Z,9.09
2023-05-07T23:29:29.764Z,9.11
2023-05-07T23:32:01.779Z,9.15
2023-05-07T23:34:33.531Z,9.10
2023-05-07T23:37:05.382Z,9.02
2023-05-07T23:39:37.270Z,8.89
2023-05-07T23:42:10.232Z,8.88
2023-05-07T23:44:42.099Z,8.85
2023-05-07T23:47:13.810Z,8.87
2023-05-07T23:49:45.594Z,8.91
2023-05-07T23:52:17.403Z,8.89
2023-05-07T23:54:49.198Z,8.91
2023-05-07T23:57:20.969Z,8.87
2023-05-07T23:59:53.102Z,8.83
